Time;durP1;ratioP1;P1;durP2;ratioP2;P2;SDS_P1;SDS_P2;PMS_P1;PMS_P2;Temp;Humidity;BMP_temperature;BMP_pressure;BME280_temperature;BME280_humidity;BME280_pressure;Samples;Min_cycle;Max_cycle;Signal;HPM_P1;HPM_P2
2021/07/12 00:01:00;;;;;;;12.58;8.28;;;;;;;20.20;82.90;100724.97;1720605;81;25955;-77
2021/07/12 00:03:27;;;;;;;9.03;7.97;;;;;;;20.21;83.02;100718.44;1740214;81;25843;-77
2021/07/12 00:05:54;;;;;;;8.73;7.83;;;;;;;20.17;83.21;100715.89;1658002;83;25816;-77
2021/07/12 00:08:22;;;;;;;9.63;8.68;;;;;;;20.13;83.49;100717.99;1680591;82;25329;-77
2021/07/12 00:10:49;;;;;;;9.30;8.50;;;;;;;20.07;83.79;100729.86;1701651;81;28146;-76
2021/07/12 00:13:17;;;;;;;10.25;8.85;;;;;;;20.03;84.12;100740.41;1736578;81;26409;-76
2021/07/12 00:15:44;;;;;;;9.05;8.18;;;;;;;20.00;84.17;100735.45;1679489;81;25793;-77
2021/07/12 00:18:11;;;;;;;9.60;8.70;;;;;;;20.01;84.32;100737.11;1715241;81;26115;-77
2021/07/12 00:20:39;;;;;;;10.43;8.50;;;;;;;20.02;84.34;100733.87;1696765;82;25904;-77
2021/07/12 00:23:06;;;;;;;12.05;9.13;;;;;;;20.02;84.72;100735.23;1735295;81;27538;-76
2021/07/12 00:25:33;;;;;;;12.90;9.13;;;;;;;20.02;84.52;100737.39;1681480;82;25765;-76
2021/07/12 00:28:00;;;;;;;11.05;9.48;;;;;;;20.06;84.52;100725.51;1683655;81;26164;-77
2021/07/12 00:30:29;;;;;;;9.23;8.33;;;;;;;20.11;84.55;100729.13;1718372;82;25834;-77
2021/07/12 00:32:56;;;;;;;8.98;8.03;;;;;;;20.13;84.60;100724.79;1724176;82;25824;-77
2021/07/12 00:35:24;;;;;;;10.55;9.03;;;;;;;20.13;84.35;100724.79;1667117;83;27966;-76
2021/07/12 00:37:52;;;;;;;10.20;9.20;;;;;;;20.12;84.54;100725.88;1711234;81;25788;-77
2021/07/12 00:40:22;;;;;;;17.92;10.28;;;;;;;20.09;84.85;100724.47;1718021;81;26424;-77
2021/07/12 00:42:50;;;;;;;12.45;9.55;;;;;;;20.08;84.76;100728.80;1707916;83;25486;-76
2021/07/12 00:45:25;;;;;;;10.93;9.90;;;;;;;20.10;84.77;100730.73;1657794;83;25938;-77
2021/07/12 00:47:53;;;;;;;10.45;9.45;;;;;;;20.09;84.85;100732.63;1671458;82;27550;-77
2021/07/12 00:50:25;;;;;;;10.03;9.03;;;;;;;20.10;84.87;100734.30;1711596;81;25809;-77
2021/07/12 00:52:53;;;;;;;10.88;9.80;;;;;;;20.08;84.79;100737.77;1720698;82;25742;-77
2021/07/12 00:55:25;;;;;;;11.73;10.58;;;;;;;20.08;84.98;100738.33;1687290;81;25865;-77
2021/07/12 00:57:54;;;;;;;12.85;10.18;;;;;;;20.08;84.88;100730.96;1710005;82;25801;-77
2021/07/12 01:00:24;;;;;;;13.32;10.10;;;;;;;20.10;85.01;100738.37;1706121;83;27538;-77
2021/07/12 01:02:52;;;;;;;11.55;10.43;;;;;;;20.14;84.99;100741.41;1723698;82;25951;-77
2021/07/12 01:05:23;;;;;;;11.28;10.00;;;;;;;20.16;84.84;100736.55;1712128;82;25951;-76
2021/07/12 01:07:52;;;;;;;13.95;10.70;;;;;;;20.18;84.95;100746.13;1685853;82;25933;-77
2021/07/12 01:10:21;;;;;;;11.10;10.00;;;;;;;20.20;84.87;100741.29;1737548;81;25748;-76
2021/07/12 01:13:12;;;;;;;12.90;9.65;;;;;;;20.21;84.80;100737.48;1669493;82;27596;-77
2021/07/12 01:16:09;;;;;;;11.40;10.00;;;;;;;20.23;84.75;100727.17;1729839;82;34863;-77
2021/07/12 01:19:14;;;;;;;10.98;9.88;;;;;;;20.26;84.74;100728.05;1696308;82;25778;-77
2021/07/12 01:21:47;;;;;;;11.83;10.63;;;;;;;20.24;84.59;100724.77;1722622;82;26260;-76
2021/07/12 01:25:01;;;;;;;10.38;9.40;;;;;;;20.24;84.41;100723.92;1707325;82;25954;-76
2021/07/12 01:28:11;;;;;;;11.18;10.08;;;;;;;20.24;84.25;100721.21;1731384;82;27498;-77
2021/07/12 01:31:22;;;;;;;13.88;10.23;;;;;;;20.22;84.10;100717.38;1703031;82;25968;-76
2021/07/12 01:34:01;;;;;;;12.03;10.68;;;;;;;20.20;84.19;100714.09;1723228;82;25753;-76
2021/07/12 01:36:53;;;;;;;12.00;10.80;;;;;;;20.17;84.22;100713.70;1674782;82;25781;-77
2021/07/12 01:39:24;;;;;;;12.03;10.03;;;;;;;20.16;84.07;100715.63;1727708;82;26457;-76
2021/07/12 01:42:24;;;;;;;11.35;10.15;;;;;;;20.15;83.93;100713.96;1701755;82;27476;-77
2021/07/12 01:45:12;;;;;;;13.20;11.90;;;;;;;20.14;83.93;100712.86;1697557;82;35360;-77
2021/07/12 01:48:05;;;;;;;11.73;10.60;;;;;;;20.12;83.87;100704.95;1696489;82;26686;-77
2021/07/12 01:50:40;;;;;;;11.65;10.45;;;;;;;20.12;83.69;100702.77;1724414;83;25838;-77
2021/07/12 01:53:22;;;;;;;12.68;11.48;;;;;;;20.07;83.62;100698.05;1697936;82;25795;-77
2021/07/12 01:55:58;;;;;;;13.58;11.22;;;;;;;20.02;83.70;100699.88;1727382;82;28140;-78
2021/07/12 01:58:31;;;;;;;13.68;11.33;;;;;;;19.94;83.54;100698.37;1710074;82;25912;-77
2021/07/12 02:01:00;;;;;;;12.68;11.38;;;;;;;19.86;83.74;100684.66;1718289;82;25787;-77
2021/07/12 02:03:30;;;;;;;13.25;11.85;;;;;;;19.80;83.71;100690.25;1689920;82;25853;-77
2021/07/12 02:06:02;;;;;;;13.72;11.70;;;;;;;19.79;84.12;100689.42;1701847;82;25800;-77
2021/07/12 02:08:30;;;;;;;11.30;9.60;;;;;;;19.78;84.08;100686.39;1690613;82;27379;-77
2021/07/12 02:10:59;;;;;;;10.95;9.78;;;;;;;19.75;84.05;100678.75;1718650;82;26197;-77
2021/07/12 02:13:29;;;;;;;11.25;10.03;;;;;;;19.67;83.96;100683.76;1711813;82;25771;-78
2021/07/12 02:16:02;;;;;;;11.48;10.30;;;;;;;19.66;84.11;100684.28;1717319;83;25824;-77
2021/07/12 02:18:35;;;;;;;22.05;16.85;;;;;;;19.66;84.14;100688.89;1651873;83;25973;-77
2021/07/12 02:21:21;;;;;;;18.67;14.33;;;;;;;19.67;84.11;100687.83;1712694;83;27629;-77
2021/07/12 02:23:51;;;;;;;15.70;12.07;;;;;;;19.65;83.99;100684.53;1681270;83;25783;-77
2021/07/12 02:26:19;;;;;;;12.53;11.22;;;;;;;19.65;83.94;100689.97;1687069;83;25993;-77
2021/07/12 02:28:48;;;;;;;13.80;11.65;;;;;;;19.66;83.92;100687.53;1664450;83;26115;-77
2021/07/12 02:31:18;;;;;;;12.50;11.23;;;;;;;19.66;83.85;100688.36;1713141;83;25807;-77
2021/07/12 02:33:46;;;;;;;12.75;11.33;;;;;;;19.68;83.84;100682.14;1705469;83;28338;-77
2021/07/12 02:36:14;;;;;;;13.25;11.38;;;;;;;19.65;83.77;100683.98;1683027;83;26036;-77
2021/07/12 02:38:41;;;;;;;12.33;11.03;;;;;;;19.61;83.67;100685.53;1613691;84;26228;-77
2021/07/12 02:41:12;;;;;;;12.33;11.20;;;;;;;19.58;83.66;100686.05;1712303;83;25904;-78
2021/07/12 02:43:41;;;;;;;12.25;10.90;;;;;;;19.59;83.71;100686.88;1712714;83;25839;-76
2021/07/12 02:46:11;;;;;;;12.82;10.85;;;;;;;19.55;83.74;100685.16;1677834;83;27626;-77
2021/07/12 02:48:38;;;;;;;12.10;10.90;;;;;;;19.50;83.81;100685.61;1632894;83;25316;-76
2021/07/12 02:51:11;;;;;;;12.58;11.28;;;;;;;19.48;83.82;100689.10;1715545;83;25810;-77
2021/07/12 02:53:48;;;;;;;12.07;10.80;;;;;;;19.45;83.87;100686.33;1713069;83;25820;-77
2021/07/12 02:56:16;;;;;;;13.08;10.68;;;;;;;19.45;83.81;100680.90;1705989;83;25942;-77
2021/07/12 02:58:44;;;;;;;12.47;11.15;;;;;;;19.42;83.67;100675.94;1666661;83;27387;-77
2021/07/12 03:01:11;;;;;;;12.55;11.33;;;;;;;19.40;83.75;100672.64;1708717;83;25780;-77
2021/07/12 03:03:38;;;;;;;12.45;11.25;;;;;;;19.39;83.68;100673.72;1659940;83;25745;-77
2021/07/12 03:06:12;;;;;;;12.63;11.40;;;;;;;19.39;83.66;100675.61;1687217;83;25863;-77
2021/07/12 03:09:08;;;;;;;11.60;10.43;;;;;;;19.39;83.71;100680.52;1664155;83;25846;-77
2021/07/12 03:11:43;;;;;;;13.88;10.93;;;;;;;19.39;83.92;100675.08;1681494;84;28100;-77
2021/07/12 03:14:22;;;;;;;13.10;10.93;;;;;;;19.35;83.97;100678.00;1662805;84;25813;-77
2021/07/12 03:16:50;;;;;;;13.05;11.70;;;;;;;19.32;84.01;100675.72;1683949;84;25933;-77
2021/07/12 03:19:29;;;;;;;12.28;11.08;;;;;;;19.34;84.04;100675.47;1672696;83;25837;-77
2021/07/12 03:22:02;;;;;;;12.37;10.77;;;;;;;19.33;84.11;100676.02;1703908;83;26576;-77
2021/07/12 03:24:35;;;;;;;11.60;10.23;;;;;;;19.32;84.15;100675.72;1661963;84;28274;-76
2021/07/12 03:27:04;;;;;;;13.53;11.88;;;;;;;19.32;84.26;100672.17;1656249;84;26115;-77
2021/07/12 03:29:38;;;;;;;12.50;10.48;;;;;;;19.34;84.36;100673.61;1626220;84;26001;-77
2021/07/12 03:32:08;;;;;;;12.90;11.22;;;;;;;19.36;84.34;100670.12;1695224;83;26206;-76
2021/07/12 03:34:37;;;;;;;13.75;12.35;;;;;;;19.37;84.34;100677.74;1670718;84;25924;-77
2021/07/12 03:37:05;;;;;;;12.35;10.05;;;;;;;19.39;84.48;100673.72;1669599;83;27250;-77
2021/07/12 03:39:33;;;;;;;13.03;11.12;;;;;;;19.44;84.52;100677.08;1638960;85;26004;-77
2021/07/12 03:42:01;;;;;;;12.93;11.30;;;;;;;19.46;84.42;100675.73;1681840;84;25774;-76
2021/07/12 03:44:28;;;;;;;13.18;11.78;;;;;;;19.49;84.40;100677.15;1640530;84;25915;-77
2021/07/12 03:46:55;;;;;;;14.23;11.40;;;;;;;19.52;84.47;100680.75;1649729;84;25903;-77
2021/07/12 03:49:23;;;;;;;15.05;10.58;;;;;;;19.52;84.42;100677.51;1650882;84;28317;-77
2021/07/12 03:51:53;;;;;;;13.13;10.78;;;;;;;19.52;84.42;100676.15;1699836;83;25861;-77
2021/07/12 03:54:20;;;;;;;12.73;10.98;;;;;;;19.49;84.46;100672.55;1672411;84;26652;-76
2021/07/12 03:56:47;;;;;;;11.97;10.88;;;;;;;19.49;84.68;100677.15;1691834;83;26287;-77
2021/07/12 03:59:14;;;;;;;11.55;10.53;;;;;;;19.51;85.01;100678.56;1657461;84;25964;-77
2021/07/12 04:01:42;;;;;;;16.57;11.68;;;;;;;19.54;85.10;100676.73;1663426;84;27481;-77
2021/07/12 04:04:10;;;;;;;11.90;10.80;;;;;;;19.62;85.05;100680.94;1635686;84;25900;-76
2021/07/12 04:06:38;;;;;;;10.82;9.73;;;;;;;19.68;85.34;100680.78;1640457;83;26593;-77
2021/07/12 04:09:05;;;;;;;11.50;10.40;;;;;;;19.73;85.20;100685.49;1679028;81;25873;-77
2021/07/12 04:11:36;;;;;;;10.50;9.40;;;;;;;19.75;85.21;100685.55;1707543;81;25820;-77
2021/07/12 04:14:04;;;;;;;11.55;9.85;;;;;;;19.79;85.17;100683.15;1678556;81;27494;-77
2021/07/12 04:16:31;;;;;;;11.00;9.63;;;;;;;19.79;85.17;100677.19;1702302;82;26627;-77
2021/07/12 04:18:58;;;;;;;11.93;10.43;;;;;;;19.77;85.10;100679.85;1681112;82;25765;-77
2021/07/12 04:21:25;;;;;;;10.85;9.83;;;;;;;19.76;85.10;100675.50;1708568;83;25944;-77
2021/07/12 04:23:52;;;;;;;10.18;9.18;;;;;;;19.77;85.28;100677.13;1667377;83;25745;-77
2021/07/12 04:26:19;;;;;;;11.68;10.23;;;;;;;19.79;85.64;100672.27;1677091;81;27617;-77
2021/07/12 04:28:46;;;;;;;10.45;9.35;;;;;;;19.79;85.67;100674.47;1658276;83;25786;-77
2021/07/12 04:31:14;;;;;;;11.35;10.25;;;;;;;19.82;85.75;100671.80;1689171;83;25876;-77
2021/07/12 04:33:41;;;;;;;10.78;9.68;;;;;;;19.83;85.80;100668.83;1691790;83;26548;-77
2021/07/12 04:36:10;;;;;;;10.03;9.05;;;;;;;19.91;86.04;100668.94;1683566;83;25830;-77
2021/07/12 04:38:38;;;;;;;9.65;8.70;;;;;;;19.96;86.04;100666.32;1680541;83;27998;-77
2021/07/12 04:41:06;;;;;;;10.82;9.25;;;;;;;19.97;85.87;100667.42;1712064;83;26116;-77
2021/07/12 04:43:33;;;;;;;10.60;9.50;;;;;;;20.01;85.74;100670.50;1668802;82;25792;-77
2021/07/12 04:46:00;;;;;;;13.72;9.55;;;;;;;20.05;85.81;100666.73;1741302;81;25871;-77
2021/07/12 04:48:27;;;;;;;11.93;8.93;;;;;;;20.07;85.82;100669.50;1716794;82;25266;-77
2021/07/12 04:50:54;;;;;;;9.68;8.68;;;;;;;20.12;85.56;100664.69;1671855;82;28155;-77
2021/07/12 04:53:21;;;;;;;10.25;9.05;;;;;;;20.21;85.80;100665.40;1675261;81;25821;-76
2021/07/12 04:55:48;;;;;;;12.68;8.13;;;;;;;20.27;85.72;100659.52;1682477;83;25593;-77
2021/07/12 04:58:16;;;;;;;10.65;8.63;;;;;;;20.33;85.75;100669.41;1726585;82;25907;-76
2021/07/12 05:00:43;;;;;;;15.05;8.45;;;;;;;20.42;85.72;100661.12;1680551;82;25796;-76
2021/07/12 05:03:10;;;;;;;11.03;8.48;;;;;;;20.49;85.74;100659.85;1696451;81;27520;-76
2021/07/12 05:05:37;;;;;;;9.23;8.25;;;;;;;20.54;85.42;100665.91;1715611;81;25793;-76
2021/07/12 05:08:04;;;;;;;9.40;7.37;;;;;;;20.59;85.51;100658.63;1723521;81;25564;-76
2021/07/12 05:10:31;;;;;;;12.35;7.42;;;;;;;20.64;85.46;100662.80;1675805;81;25895;-76
2021/07/12 05:12:58;;;;;;;9.98;7.65;;;;;;;20.69;85.32;100659.32;1709554;81;25929;-78
2021/07/12 05:15:25;;;;;;;8.55;7.75;;;;;;;20.73;85.39;100653.13;1711756;81;27672;-76
2021/07/12 05:17:52;;;;;;;10.58;7.62;;;;;;;20.77;85.38;100652.08;1742082;81;26531;-76
2021/07/12 05:20:19;;;;;;;9.65;8.28;;;;;;;20.81;85.52;100658.66;1646764;82;25884;-76
2021/07/12 05:22:47;;;;;;;7.90;7.10;;;;;;;20.87;85.62;100652.20;1688568;82;26682;-77
2021/07/12 05:25:14;;;;;;;11.10;7.75;;;;;;;20.92;85.66;100653.63;1712626;81;25323;-77
2021/07/12 05:27:41;;;;;;;9.80;7.40;;;;;;;21.00;85.81;100649.09;1735238;81;28248;-77
2021/07/12 05:30:09;;;;;;;9.65;7.30;;;;;;;21.05;85.39;100648.38;1679525;81;25842;-77
2021/07/12 05:32:36;;;;;;;8.38;7.42;;;;;;;21.15;85.97;100641.70;1710042;83;25900;-77
2021/07/12 05:35:06;;;;;;;10.15;8.43;;;;;;;21.23;85.61;100633.91;1677394;83;26666;-77
2021/07/12 05:37:34;;;;;;;8.17;7.37;;;;;;;21.29;85.51;100645.67;1722734;82;25889;-77
2021/07/12 05:40:01;;;;;;;11.83;8.35;;;;;;;21.35;85.96;100644.11;1644970;83;27582;-77
2021/07/12 05:42:28;;;;;;;8.60;7.80;;;;;;;21.40;85.75;100647.44;1712933;83;25869;-78
2021/07/12 05:44:55;;;;;;;11.15;8.68;;;;;;;21.44;85.46;100648.03;1693595;82;25789;-78
2021/07/12 05:47:22;;;;;;;10.85;7.97;;;;;;;21.52;85.83;100642.64;1699068;82;26528;-77
2021/07/12 05:49:49;;;;;;;11.50;8.50;;;;;;;21.59;85.85;100641.91;1680658;81;26175;-77
2021/07/12 05:52:16;;;;;;;9.60;8.70;;;;;;;21.69;86.31;100639.80;1698873;81;27589;-78
2021/07/12 05:54:43;;;;;;;11.78;8.45;;;;;;;21.80;86.25;100641.55;1699412;81;25877;-77
2021/07/12 05:57:10;;;;;;;11.40;8.93;;;;;;;21.91;86.14;100640.05;1709637;80;25852;-78
2021/07/12 05:59:37;;;;;;;9.93;8.48;;;;;;;22.02;85.97;100640.42;1684154;81;25650;-78
2021/07/12 06:02:05;;;;;;;8.40;7.60;;;;;;;22.11;85.75;100642.92;1718883;81;25893;-78
2021/07/12 06:04:32;;;;;;;9.88;8.83;;;;;;;22.21;86.00;100644.39;1695173;81;28268;-78
2021/07/12 06:06:59;;;;;;;10.55;9.40;;;;;;;22.30;85.66;100641.99;1734934;81;25886;-77
2021/07/12 06:09:26;;;;;;;11.25;9.08;;;;;;;22.38;85.99;100644.76;1708623;82;25818;-77
2021/07/12 06:11:53;;;;;;;14.45;9.20;;;;;;;22.49;85.58;100636.38;1676380;81;25842;-77
2021/07/12 06:14:20;;;;;;;11.33;9.30;;;;;;;22.59;85.62;100638.37;1713186;82;25889;-78
2021/07/12 06:16:47;;;;;;;12.45;8.53;;;;;;;22.65;85.23;100631.84;1720870;82;27626;-78
2021/07/12 06:19:14;;;;;;;10.43;8.65;;;;;;;22.71;84.79;100624.78;1649742;82;26829;-77
2021/07/12 06:21:41;;;;;;;10.80;9.70;;;;;;;22.83;85.27;100632.77;1675934;81;25885;-78
2021/07/12 06:24:09;;;;;;;9.83;8.90;;;;;;;22.94;85.10;100633.92;1677886;81;26551;-78
2021/07/12 06:26:36;;;;;;;14.40;9.68;;;;;;;23.05;85.13;100630.69;1720283;82;26547;-78
2021/07/12 06:29:03;;;;;;;14.95;9.93;;;;;;;23.12;85.06;100627.13;1681266;81;27497;-77
2021/07/12 06:31:31;;;;;;;13.60;10.20;;;;;;;23.16;84.37;100620.61;1668815;81;25812;-77
2021/07/12 06:33:58;;;;;;;11.83;9.60;;;;;;;23.22;84.65;100619.53;1692597;81;25329;-77
2021/07/12 06:36:25;;;;;;;12.35;9.80;;;;;;;23.31;85.21;100619.28;1741094;81;25795;-77
2021/07/12 06:38:52;;;;;;;18.87;10.48;;;;;;;23.40;84.86;100618.50;1670788;81;25950;-77
2021/07/12 06:41:19;;;;;;;14.28;10.43;;;;;;;23.51;84.78;100615.23;1656049;83;28363;-77
2021/07/12 06:43:46;;;;;;;11.88;10.72;;;;;;;23.62;84.40;100623.20;1691024;83;25749;-78
2021/07/12 06:46:15;;;;;;;12.53;11.28;;;;;;;23.69;84.06;100615.52;1731863;81;26557;-77
2021/07/12 06:48:43;;;;;;;12.55;11.25;;;;;;;23.78;84.51;100616.37;1709152;83;26017;-77
2021/07/12 06:51:19;;;;;;;12.47;10.80;;;;;;;23.85;83.80;100609.52;1692103;81;25870;-77
2021/07/12 06:53:46;;;;;;;12.60;11.28;;;;;;;23.94;83.97;100607.88;1709238;81;27543;-77
2021/07/12 06:56:14;;;;;;;13.13;10.85;;;;;;;24.05;84.20;100610.09;1712894;83;25709;-78
2021/07/12 06:58:42;;;;;;;12.30;11.08;;;;;;;24.18;83.96;100613.11;1628422;84;25850;-77
2021/07/12 07:01:09;;;;;;;12.13;11.03;;;;;;;24.28;83.37;100611.71;1691182;83;26443;-77
2021/07/12 07:03:36;;;;;;;12.93;11.50;;;;;;;24.36;83.09;100613.87;1691298;82;25819;-77
2021/07/12 07:06:05;;;;;;;13.05;11.95;;;;;;;24.44;82.90;100613.87;1721333;82;27470;-77
2021/07/12 07:08:35;;;;;;;13.00;11.70;;;;;;;24.48;82.43;100606.20;1683189;83;26020;-77
2021/07/12 07:11:03;;;;;;;17.50;12.78;;;;;;;24.47;82.01;100611.39;1692383;83;25892;-77
2021/07/12 07:13:31;;;;;;;12.63;11.38;;;;;;;24.53;82.18;100607.53;1685948;83;26585;-77
2021/07/12 07:16:00;;;;;;;12.55;11.45;;;;;;;24.62;82.03;100608.33;1682625;84;26514;-77
2021/07/12 07:18:27;;;;;;;12.80;11.60;;;;;;;24.68;82.02;100602.55;1659920;83;27481;-77
2021/07/12 07:20:55;;;;;;;12.95;11.73;;;;;;;24.75;81.59;100603.66;1687796;83;25995;-76
2021/07/12 07:23:24;;;;;;;12.88;11.68;;;;;;;24.84;81.60;100597.88;1684831;83;25845;-77
2021/07/12 07:25:52;;;;;;;13.62;12.20;;;;;;;24.89;81.42;100594.55;1669252;84;25889;-77
2021/07/12 07:28:19;;;;;;;12.78;11.50;;;;;;;25.01;81.76;100591.50;1640730;84;25897;-77
2021/07/12 07:30:46;;;;;;;13.48;12.05;;;;;;;25.08;80.94;100602.98;1646575;84;27578;-77
2021/07/12 07:33:14;;;;;;;13.10;11.88;;;;;;;25.12;80.78;100595.28;1681182;84;25850;-77
2021/07/12 07:35:42;;;;;;;13.03;11.65;;;;;;;25.24;80.91;100594.38;1685112;83;25857;-77
2021/07/12 07:38:09;;;;;;;15.50;12.35;;;;;;;25.33;80.09;100600.09;1659027;83;26467;-77
2021/07/12 07:40:36;;;;;;;14.05;12.58;;;;;;;25.44;80.29;100597.58;1654583;83;25899;-77
2021/07/12 07:43:04;;;;;;;13.78;12.47;;;;;;;25.55;80.65;100601.08;1682771;83;27473;-77
2021/07/12 07:45:32;;;;;;;14.73;12.00;;;;;;;25.65;79.92;100599.62;1706408;83;26456;-77
2021/07/12 07:47:59;;;;;;;17.20;12.10;;;;;;;25.70;79.61;100600.42;1670373;83;26534;-77
2021/07/12 07:50:26;;;;;;;14.10;12.43;;;;;;;25.74;79.13;100593.25;1655285;84;25868;-77
2021/07/12 07:52:53;;;;;;;14.28;12.88;;;;;;;25.79;78.61;100589.64;1680896;83;25895;-78
2021/07/12 07:55:21;;;;;;;14.35;12.20;;;;;;;25.80;78.69;100587.98;1677504;83;27567;-78
2021/07/12 07:57:48;;;;;;;13.22;11.88;;;;;;;25.87;79.10;100584.36;1631070;83;25863;-77
2021/07/12 08:00:19;;;;;;;14.28;12.78;;;;;;;25.94;78.50;100580.70;1662800;83;26558;-77
2021/07/12 08:02:46;;;;;;;12.85;11.75;;;;;;;25.99;78.08;100572.98;1712912;83;25947;-77
2021/07/12 08:05:14;;;;;;;13.48;12.20;;;;;;;26.06;78.56;100578.13;1689058;83;25915;-77
2021/07/12 08:07:41;;;;;;;12.98;11.88;;;;;;;26.17;78.48;100579.71;1644596;83;28729;-77
2021/07/12 08:10:11;;;;;;;14.00;11.95;;;;;;;26.18;77.46;100578.04;1669722;82;25894;-77
2021/07/12 08:12:40;;;;;;;12.70;11.70;;;;;;;26.25;78.42;100580.45;1663008;83;25889;-77
2021/07/12 08:15:10;;;;;;;20.27;11.30;;;;;;;26.34;78.20;100578.16;1700896;83;26467;-77
2021/07/12 08:17:38;;;;;;;13.45;12.15;;;;;;;26.39;77.54;100573.97;1692588;82;25822;-77
2021/07/12 08:20:08;;;;;;;12.93;11.83;;;;;;;26.49;77.88;100560.69;1668801;82;27684;-77
2021/07/12 08:22:35;;;;;;;13.30;12.10;;;;;;;26.63;77.94;100562.98;1697377;83;25878;-78
2021/07/12 08:25:04;;;;;;;13.35;12.07;;;;;;;26.77;77.45;100568.62;1672213;82;26350;-77
2021/07/12 08:27:32;;;;;;;13.32;11.90;;;;;;;26.82;76.11;100566.61;1675184;83;26555;-77
2021/07/12 08:29:59;;;;;;;12.70;11.40;;;;;;;26.91;76.33;100564.02;1677111;84;25322;-77
2021/07/12 08:32:26;;;;;;;12.50;11.40;;;;;;;27.02;75.64;100565.52;1708788;82;27450;-77
2021/07/12 08:34:53;;;;;;;14.63;12.18;;;;;;;27.08;74.95;100561.59;1680845;82;25775;-77
2021/07/12 08:37:20;;;;;;;12.70;11.43;;;;;;;27.14;74.08;100565.34;1671613;83;25862;-77
2021/07/12 08:39:47;;;;;;;13.18;11.97;;;;;;;27.16;74.84;100565.86;1693706;82;26215;-78
2021/07/12 08:55:35;;;;;;;13.40;11.00;;;;;;;28.13;71.57;100563.23;1767470;79;25759;-77
2021/07/12 08:58:27;;;;;;;13.18;11.97;;;;;;;28.09;71.36;100559.45;1656174;83;25821;-77
2021/07/12 09:01:09;;;;;;;14.33;11.05;;;;;;;28.09;71.49;100558.90;1724164;82;28332;-77
2021/07/12 09:03:43;;;;;;;11.68;10.48;;;;;;;28.10;71.63;100556.97;1672077;83;25834;-77
2021/07/12 09:06:14;;;;;;;11.55;10.45;;;;;;;28.12;70.83;100565.16;1619412;82;25951;-77
2021/07/12 09:08:58;;;;;;;11.93;10.93;;;;;;;28.09;70.45;100556.70;1692783;82;26326;-77
2021/07/12 09:11:29;;;;;;;10.98;9.98;;;;;;;28.11;70.99;100544.81;1697443;81;25774;-77
2021/07/12 09:14:08;;;;;;;11.80;10.58;;;;;;;28.22;70.74;100551.22;1684287;82;27548;-77
2021/07/12 09:16:47;;;;;;;11.33;10.32;;;;;;;28.33;71.36;100546.88;1681294;83;25819;-77
2021/07/12 09:19:32;;;;;;;13.65;10.08;;;;;;;28.39;70.53;100548.41;1679420;82;26317;-77
2021/07/12 09:22:08;;;;;;;10.68;9.68;;;;;;;28.47;70.29;100547.69;1713439;82;25845;-77
2021/07/12 09:24:52;;;;;;;11.25;10.18;;;;;;;28.50;69.73;100547.09;1685789;82;25921;-77
2021/07/12 09:27:24;;;;;;;11.63;10.50;;;;;;;28.50;68.95;100552.60;1686623;82;27531;-77
2021/07/12 09:30:07;;;;;;;12.60;10.15;;;;;;;28.49;68.86;100550.41;1684584;82;25827;-77
2021/07/12 09:32:38;;;;;;;11.25;10.15;;;;;;;28.50;68.58;100550.67;1709877;82;25956;-77
2021/07/12 09:35:10;;;;;;;10.78;9.68;;;;;;;28.60;68.63;100550.48;1735659;80;26000;-77
2021/07/12 09:37:40;;;;;;;14.00;9.35;;;;;;;28.58;67.39;100550.53;1760003;80;26172;-78
2021/07/12 09:40:17;;;;;;;11.00;9.78;;;;;;;28.52;67.15;100553.11;1677269;83;28578;-78
2021/07/12 09:42:48;;;;;;;11.25;10.25;;;;;;;28.50;67.78;100553.98;1714189;82;25358;-78
2021/07/12 09:45:17;;;;;;;;;;;;;;;28.55;68.41;100545.03;1682152;83;25997;-78
2021/07/12 09:47:46;;;;;;;11.20;10.03;;;;;;;28.69;66.37;100545.89;1718191;82;26203;-78
2021/07/12 09:50:25;;;;;;;10.45;9.18;;;;;;;28.83;66.46;100544.48;1736311;80;26524;-78
2021/07/12 09:53:06;;;;;;;10.98;9.85;;;;;;;28.99;67.38;100542.48;1755142;80;27486;-77
2021/07/12 09:55:41;;;;;;;10.53;9.40;;;;;;;29.12;66.23;100546.88;1669829;82;25868;-78
2021/07/12 09:58:16;;;;;;;10.93;9.70;;;;;;;29.24;65.87;100532.82;1693492;82;25368;-77
2021/07/12 10:00:51;;;;;;;9.68;8.88;;;;;;;29.40;66.08;100541.56;1705130;83;26567;-77
2021/07/12 10:03:21;;;;;;;11.65;8.40;;;;;;;29.49;63.54;100540.48;1717633;82;26437;-77
2021/07/12 10:05:51;;;;;;;11.50;8.40;;;;;;;29.53;64.08;100542.07;1621332;84;27203;-77
2021/07/12 10:08:19;;;;;;;10.43;8.27;;;;;;;29.59;62.94;100540.81;1680998;83;25811;-77
2021/07/12 10:10:48;;;;;;;14.93;9.45;;;;;;;29.59;63.08;100538.05;1713237;82;25811;-78
2021/07/12 10:13:16;;;;;;;12.53;9.20;;;;;;;29.64;62.97;100529.06;1685855;84;26551;-77
2021/07/12 10:15:43;;;;;;;10.50;8.18;;;;;;;29.68;62.38;100530.65;1657725;83;25336;-77
2021/07/12 10:18:10;;;;;;;8.98;8.20;;;;;;;29.68;62.50;100522.37;1672254;82;27979;-77
2021/07/12 10:20:38;;;;;;;13.45;8.45;;;;;;;29.72;62.16;100519.22;1692012;82;25864;-77
2021/07/12 10:23:08;;;;;;;9.53;8.45;;;;;;;29.79;61.78;100516.84;1714451;82;25711;-78
2021/07/12 10:25:37;;;;;;;9.70;8.80;;;;;;;29.85;61.11;100515.59;1665055;82;25336;-77
2021/07/12 10:28:08;;;;;;;11.25;7.97;;;;;;;29.91;61.50;100513.50;1667022;82;25947;-77
2021/07/12 10:30:42;;;;;;;10.70;8.80;;;;;;;30.02;61.01;100517.63;1674502;83;28273;-78
2021/07/12 10:33:12;;;;;;;10.10;8.78;;;;;;;30.10;60.96;100509.38;1693915;82;25918;-77
2021/07/12 10:35:54;;;;;;;9.33;8.23;;;;;;;30.13;60.80;100507.34;1662475;82;25823;-77
2021/07/12 10:38:41;;;;;;;11.05;8.48;;;;;;;30.22;60.73;100504.62;1675838;83;25880;-77
2021/07/12 10:41:22;;;;;;;9.55;8.23;;;;;;;30.31;59.51;100506.33;1695287;82;25861;-77
2021/07/12 10:44:00;;;;;;;11.83;7.22;;;;;;;30.30;59.04;100495.57;1702170;83;27452;-77
2021/07/12 10:46:35;;;;;;;9.33;7.17;;;;;;;30.29;58.67;100489.22;1674537;82;25964;-77
2021/07/12 10:49:06;;;;;;;10.98;7.37;;;;;;;30.38;56.43;100487.90;1725036;81;25943;-77
2021/07/12 10:51:40;;;;;;;7.45;6.78;;;;;;;30.50;56.56;100483.94;1687306;83;25836;-77
2021/07/12 10:54:12;;;;;;;7.83;6.47;;;;;;;30.54;56.03;100479.98;1721448;82;25737;-78
2021/07/12 10:56:59;;;;;;;7.40;6.65;;;;;;;30.57;56.54;100479.31;1664777;82;28113;-77
2021/07/12 10:59:38;;;;;;;9.50;6.12;;;;;;;30.53;53.83;100481.92;1708540;82;25572;-77
2021/07/12 11:02:20;;;;;;;8.43;6.75;;;;;;;30.54;55.27;100475.23;1726746;81;25950;-77
2021/07/12 11:04:54;;;;;;;9.18;7.37;;;;;;;30.69;55.69;100477.55;1659485;82;25338;-77
2021/07/12 11:07:48;;;;;;;8.65;7.83;;;;;;;30.75;54.89;100478.22;1683401;82;25608;-77
2021/07/12 11:10:38;;;;;;;10.93;7.25;;;;;;;30.77;55.60;100471.80;1669552;82;28305;-77
2021/07/12 11:13:03;;;;;;;12.55;7.15;;;;;;;30.83;55.41;100471.32;1723002;81;25882;-77
2021/07/12 11:15:34;;;;;;;9.93;7.33;;;;;;;30.96;55.60;100470.95;1726587;81;25836;-77
2021/07/12 11:18:11;;;;;;;11.50;7.03;;;;;;;31.03;54.97;100465.16;1664057;84;25936;-77
2021/07/12 11:20:55;;;;;;;8.68;6.45;;;;;;;31.03;53.22;100457.45;1716530;82;25776;-77
2021/07/12 11:24:09;;;;;;;9.83;6.78;;;;;;;30.98;52.98;100454.84;1689338;82;28235;-78
2021/07/12 11:26:40;;;;;;;7.85;6.72;;;;;;;30.83;53.16;100452.52;1759805;80;25781;-77
2021/07/12 11:29:29;;;;;;;7.85;6.85;;;;;;;30.61;52.59;100445.17;1663076;82;26538;-77
2021/07/12 11:32:08;;;;;;;6.85;6.33;;;;;;;30.41;53.17;100440.28;1717469;82;25824;-77
2021/07/12 11:34:51;;;;;;;7.60;6.67;;;;;;;30.28;53.43;100432.89;1674178;83;25859;-78
2021/07/12 11:37:25;;;;;;;8.53;6.78;;;;;;;30.16;53.83;100429.36;1700977;82;27487;-77
2021/07/12 11:40:01;;;;;;;8.00;7.20;;;;;;;30.11;54.34;100420.41;1637407;82;25971;-77
2021/07/12 11:42:32;;;;;;;10.75;7.03;;;;;;;30.07;54.60;100413.31;1673998;82;25854;-77
2021/07/12 11:45:16;;;;;;;8.90;6.90;;;;;;;30.03;54.32;100404.60;1676370;83;25739;-77
2021/07/12 11:47:47;;;;;;;7.78;6.62;;;;;;;30.01;54.75;100398.59;1709610;83;25832;-77